createdAt,value
2023-05-15T00:00:44.196Z,100613.84
2023-05-15T00:03:12.634Z,100608.88
2023-05-15T00:05:41.735Z,100611.44
2023-05-15T00:08:09.417Z,100604.88
2023-05-15T00:10:38.296Z,100601.09
2023-05-15T00:13:07.472Z,100601.22
2023-05-15T00:15:35.176Z,100596.00
2023-05-15T00:18:03.315Z,100581.97
2023-05-15T00:20:31.237Z,100592.50
2023-05-15T00:23:00.543Z,100581.81
2023-05-15T00:25:28.245Z,100586.53
2023-05-15T00:27:56.234Z,100578.28
2023-05-15T00:30:24.044Z,100573.38
2023-05-15T00:32:52.118Z,100566.31
2023-05-15T00:35:19.765Z,100570.44
2023-05-15T00:37:47.778Z,100568.22
2023-05-15T00:40:22.153Z,100565.53
2023-05-15T00:42:51.501Z,100555.13
2023-05-15T00:45:20.536Z,100553.25
2023-05-15T00:47:50.029Z,100551.09
2023-05-15T00:50:18.229Z,100551.66
2023-05-15T00:52:46.704Z,100552.19
2023-05-15T00:55:16.135Z,100543.59
2023-05-15T00:57:45.199Z,100547.47
2023-05-15T01:00:17.265Z,100533.72
2023-05-15T01:02:45.499Z,100537.22
2023-05-15T01:05:13.184Z,100529.03
2023-05-15T01:07:50.379Z,100521.97
2023-05-15T01:10:22.593Z,100527.53
2023-05-15T01:12:52.061Z,100526.50
2023-05-15T01:15:20.157Z,100523.81
2023-05-15T01:17:47.902Z,100523.03
2023-05-15T01:20:20.069Z,100524.34
2023-05-15T01:23:00.822Z,100523.22
2023-05-15T01:25:58.859Z,100523.81
2023-05-15T01:28:33.121Z,100521.84
2023-05-15T01:31:10.672Z,100519.88
2023-05-15T01:33:43.819Z,100524.53
2023-05-15T01:36:15.619Z,100527.97
2023-05-15T01:38:48.638Z,100525.56
2023-05-15T01:41:21.044Z,100525.94
2023-05-15T01:43:57.146Z,100524.34
2023-05-15T01:46:30.940Z,100535.63
2023-05-15T01:49:02.642Z,100529.03
2023-05-15T01:51:32.324Z,100523.75
2023-05-15T01:54:01.191Z,100516.81
2023-05-15T01:56:30.631Z,100509.94
2023-05-15T01:59:01.625Z,100498.72
2023-05-15T02:01:31.278Z,100502.09
2023-05-15T02:03:59.272Z,100494.44
2023-05-15T02:06:27.609Z,100493.88
2023-05-15T02:08:58.173Z,100487.56
2023-05-15T02:11:26.191Z,100495.88
2023-05-15T02:13:55.914Z,100488.66
2023-05-15T02:16:25.763Z,100485.59
2023-05-15T02:18:53.630Z,100493.78
2023-05-15T02:21:21.694Z,100491.31
2023-05-15T02:23:49.303Z,100488.66
2023-05-15T02:26:31.635Z,100485.50
2023-05-15T02:29:11.256Z,100481.06
2023-05-15T02:31:49.022Z,100482.69
2023-05-15T02:34:25.153Z,100483.81
2023-05-15T02:36:54.564Z,100474.78
2023-05-15T02:39:24.964Z,100481.16
2023-05-15T02:41:54.352Z,100479.22
2023-05-15T02:44:23.746Z,100477.28
2023-05-15T02:46:56.055Z,100468.53
2023-05-15T02:49:24.161Z,100468.78
2023-05-15T02:51:52.062Z,100468.00
2023-05-15T02:54:20.361Z,100460.88
2023-05-15T02:56:48.088Z,100455.44
2023-05-15T02:59:20.213Z,100458.75
2023-05-15T03:01:48.351Z,100448.41
2023-05-15T03:04:18.554Z,100445.66
2023-05-15T03:06:46.248Z,100436.88
2023-05-15T03:09:14.235Z,100438.81
2023-05-15T03:11:41.858Z,100428.09
2023-05-15T03:14:09.518Z,100436.88
2023-05-15T03:16:38.761Z,100429.78
2023-05-15T03:19:06.995Z,100430.06
2023-05-15T03:21:36.116Z,100429.78
2023-05-15T03:24:05.017Z,100426.22
2023-05-15T03:26:33.134Z,100425.91
2023-05-15T03:29:02.702Z,100419.09
2023-05-15T03:31:30.407Z,100418.56
2023-05-15T03:33:58.099Z,100421.81
2023-05-15T03:36:26.180Z,100418.78
2023-05-15T03:38:55.220Z,100421.56
2023-05-15T03:41:23.441Z,100417.50
2023-05-15T03:43:51.122Z,100415.56
2023-05-15T03:46:20.222Z,100422.97
2023-05-15T03:48:47.957Z,100421.56
2023-05-15T03:51:16.110Z,100417.97
2023-05-15T03:53:43.728Z,100404.28
2023-05-15T03:56:13.396Z,100412.25
2023-05-15T03:58:41.818Z,100413.44
2023-05-15T04:01:10.061Z,100406.53
2023-05-15T04:03:37.746Z,100413.66
2023-05-15T04:06:06.213Z,100407.88
2023-05-15T04:08:34.244Z,100398.47
2023-05-15T04:11:02.220Z,100403.38
2023-05-15T04:13:31.285Z,100406.59
2023-05-15T04:16:00.248Z,100411.50
2023-05-15T04:18:28.020Z,100404.59
2023-05-15T04:20:56.387Z,100402.72
2023-05-15T04:23:24.030Z,100405.16
2023-05-15T04:25:54.092Z,100400.78
2023-05-15T04:28:22.039Z,100406.22
2023-05-15T04:30:51.511Z,100406.72
2023-05-15T04:33:19.167Z,100400.38
2023-05-15T04:35:48.049Z,100402.03
2023-05-15T04:38:16.392Z,100400.13
2023-05-15T04:40:44.176Z,100402.84
2023-05-15T04:43:12.408Z,100391.34
2023-05-15T04:45:40.097Z,100400.59
2023-05-15T04:48:09.235Z,100399.41
2023-05-15T04:50:37.595Z,100388.94
2023-05-15T04:53:05.421Z,100395.41
2023-05-15T04:55:33.796Z,100389.59
2023-05-15T04:58:01.558Z,100384.81
2023-05-15T05:00:29.546Z,100391.78
2023-05-15T05:02:57.597Z,100388.69
2023-05-15T05:05:26.981Z,100378.16
2023-05-15T05:07:54.795Z,100390.16
2023-05-15T05:10:23.499Z,100390.31
2023-05-15T05:12:51.180Z,100386.63
2023-05-15T05:15:19.535Z,100386.22
2023-05-15T05:17:47.266Z,100373.56
2023-05-15T05:20:15.418Z,100375.38
2023-05-15T05:22:46.031Z,100378.06
2023-05-15T05:25:13.704Z,100371.66
2023-05-15T05:27:41.343Z,100382.59
2023-05-15T05:30:10.618Z,100372.34
2023-05-15T05:32:38.360Z,100363.97
2023-05-15T05:35:07.192Z,100359.28
2023-05-15T05:37:35.084Z,100358.47
2023-05-15T05:40:09.041Z,100356.22
2023-05-15T05:42:36.769Z,100353.16
2023-05-15T05:45:04.625Z,100354.28
2023-05-15T05:47:33.312Z,100346.25
2023-05-15T05:50:01.082Z,100337.69
2023-05-15T05:52:29.325Z,100345.25
2023-05-15T05:54:57.384Z,100340.84
2023-05-15T05:57:26.570Z,100349.00
2023-05-15T05:59:54.295Z,100343.66
2023-05-15T06:02:22.513Z,100349.28
2023-05-15T06:04:51.044Z,100345.81
2023-05-15T06:07:18.681Z,100339.59
2023-05-15T06:09:49.668Z,100335.66
2023-05-15T06:12:17.341Z,100329.22
2023-05-15T06:14:46.381Z,100333.53
2023-05-15T06:17:14.557Z,100327.59
2023-05-15T06:19:42.266Z,100327.44
2023-05-15T06:22:09.949Z,100323.16
2023-05-15T06:24:38.202Z,100331.19
2023-05-15T06:27:06.252Z,100328.84
2023-05-15T06:29:33.921Z,100327.13
2023-05-15T06:32:04.223Z,100324.75
2023-05-15T06:34:31.896Z,100333.91
2023-05-15T06:36:59.568Z,100326.38
2023-05-15T06:39:27.581Z,100322.69
2023-05-15T06:41:59.088Z,100326.44
2023-05-15T06:44:27.367Z,100327.44
2023-05-15T06:46:55.370Z,100328.81
2023-05-15T06:49:25.549Z,100331.16
2023-05-15T06:51:55.233Z,100331.84
2023-05-15T06:54:22.916Z,100335.00
2023-05-15T06:56:51.142Z,100327.09
2023-05-15T06:59:18.814Z,100329.72
2023-05-15T07:01:46.481Z,100327.66
2023-05-15T07:04:14.741Z,100318.13
2023-05-15T07:06:44.326Z,100317.22
2023-05-15T07:09:12.054Z,100315.44
2023-05-15T07:11:40.461Z,100324.72
2023-05-15T07:14:08.460Z,100307.88
2023-05-15T07:16:36.165Z,100317.97
2023-05-15T07:19:04.274Z,100315.06
2023-05-15T07:21:32.365Z,100319.47
2023-05-15T07:24:01.636Z,100318.31
2023-05-15T07:26:36.365Z,100317.50
2023-05-15T07:29:09.870Z,100307.28
2023-05-15T07:31:40.243Z,100305.03
2023-05-15T07:34:07.941Z,100303.75
2023-05-15T07:36:35.993Z,100309.75
2023-05-15T07:39:05.252Z,100300.53
2023-05-15T07:41:34.181Z,100296.84
2023-05-15T07:44:01.802Z,100303.34
2023-05-15T07:46:29.503Z,100298.69
2023-05-15T07:48:58.063Z,100294.97
2023-05-15T07:51:25.806Z,100297.09
2023-05-15T07:53:53.412Z,100294.19
2023-05-15T07:56:23.083Z,100302.00
2023-05-15T07:58:50.787Z,100300.25
2023-05-15T08:01:18.438Z,100289.72
2023-05-15T08:03:46.680Z,100291.84
2023-05-15T08:06:14.348Z,100289.91
2023-05-15T08:08:42.903Z,100285.19
2023-05-15T08:11:10.517Z,100281.31
2023-05-15T08:13:39.544Z,100273.50
2023-05-15T08:16:07.972Z,100282.94
2023-05-15T08:18:35.760Z,100270.25
2023-05-15T08:21:04.760Z,100258.88
2023-05-15T08:23:32.898Z,100260.00
2023-05-15T08:26:00.550Z,100258.88
2023-05-15T08:28:28.275Z,100258.56
2023-05-15T08:30:58.656Z,100246.69
2023-05-15T08:33:26.317Z,100238.72
2023-05-15T08:35:53.982Z,100241.81
2023-05-15T08:38:23.110Z,100252.38
2023-05-15T08:40:53.823Z,100248.47
2023-05-15T08:43:24.081Z,100240.19
2023-05-15T08:45:53.592Z,100248.16
2023-05-15T08:48:26.933Z,100243.59
2023-05-15T08:50:57.686Z,100231.09
2023-05-15T08:53:26.231Z,100233.84
2023-05-15T08:55:54.482Z,100233.38
2023-05-15T08:58:25.941Z,100225.91
2023-05-15T09:00:53.683Z,100233.88
2023-05-15T09:03:23.961Z,100224.63
2023-05-15T09:05:53.125Z,100218.78
2023-05-15T09:08:24.182Z,100220.41
2023-05-15T09:10:55.053Z,100218.13
2023-05-15T09:13:22.798Z,100217.00
2023-05-15T09:15:51.003Z,100215.03
2023-05-15T09:18:19.317Z,100214.72
2023-05-15T09:20:48.369Z,100216.34
2023-05-15T09:23:27.410Z,100214.38
2023-05-15T09:25:56.854Z,100208.53
2023-05-15T09:28:30.559Z,100202.34
2023-05-15T09:31:00.426Z,100201.88
2023-05-15T09:33:35.242Z,100198.63
2023-05-15T09:36:05.771Z,100198.94
2023-05-15T09:38:33.808Z,100195.03
2023-05-15T09:41:05.998Z,100185.44
2023-05-15T09:43:35.858Z,100183.50
2023-05-15T09:46:03.811Z,100185.44
2023-05-15T09:48:33.267Z,100190.50
2023-05-15T09:51:02.189Z,100182.22
2023-05-15T09:53:31.754Z,100181.06
2023-05-15T09:55:59.998Z,100181.88
2023-05-15T09:58:27.680Z,100187.06
2023-05-15T10:00:55.651Z,100174.88
2023-05-15T10:03:24.469Z,100177.31
2023-05-15T10:06:01.619Z,100184.63
2023-05-15T10:08:30.259Z,100184.31
2023-05-15T10:11:01.597Z,100185.28
2023-05-15T10:13:33.068Z,100177.16
2023-05-15T10:16:03.553Z,100185.28
2023-05-15T10:18:31.504Z,100183.00
2023-05-15T10:21:04.626Z,100178.75
2023-05-15T10:23:34.153Z,100182.19
2023-05-15T10:26:07.026Z,100185.13
2023-05-15T10:28:36.226Z,100188.03
2023-05-15T10:31:05.593Z,100179.88
2023-05-15T10:33:34.158Z,100184.75
2023-05-15T10:36:03.306Z,100181.69
2023-05-15T10:38:31.899Z,100185.09
2023-05-15T10:41:15.760Z,100185.22
2023-05-15T10:43:47.272Z,100175.13
2023-05-15T10:46:16.284Z,100184.72
2023-05-15T10:48:44.463Z,100174.81
2023-05-15T10:51:18.201Z,100175.78
2023-05-15T10:53:46.627Z,100173.97
2023-05-15T10:56:16.506Z,100172.19
2023-05-15T10:58:50.298Z,100178.69
2023-05-15T11:01:28.675Z,100162.41
2023-05-15T11:04:10.627Z,100165.13
2023-05-15T11:06:38.998Z,100160.25
2023-05-15T11:09:36.145Z,100158.06
2023-05-15T11:12:05.313Z,100152.03
2023-05-15T11:14:37.251Z,100146.63
2023-05-15T11:17:07.194Z,100153.13
2023-05-15T11:19:38.279Z,100146.13
2023-05-15T11:22:21.976Z,100138.75
2023-05-15T11:24:54.912Z,100138.25
2023-05-15T11:27:24.501Z,100139.81
2023-05-15T11:30:11.728Z,100131.25
2023-05-15T11:32:49.133Z,100139.50
2023-05-15T11:35:21.944Z,100136.78
2023-05-15T11:37:51.157Z,100143.09
2023-05-15T11:40:24.801Z,100144.63
2023-05-15T11:43:06.477Z,100136.72
2023-05-15T11:45:37.177Z,100127.63
2023-05-15T11:48:08.626Z,100132.28
2023-05-15T11:50:36.673Z,100122.88
2023-05-15T11:53:06.659Z,100123.03
2023-05-15T11:55:35.779Z,100115.31
2023-05-15T11:58:04.334Z,100120.63
2023-05-15T12:00:32.612Z,100108.63
2023-05-15T12:03:03.748Z,100112.38
2023-05-15T12:05:31.942Z,100127.91
2023-05-15T12:08:00.120Z,100117.00
2023-05-15T12:10:28.024Z,100119.88
2023-05-15T12:12:56.130Z,100108.34
2023-05-15T12:15:24.242Z,100104.66
2023-05-15T12:17:52.059Z,100105.00
2023-05-15T12:20:21.394Z,100104.13
2023-05-15T12:22:49.454Z,100096.16
2023-05-15T12:25:17.650Z,100107.84
2023-05-15T12:27:45.801Z,100105.03
2023-05-15T12:30:16.733Z,100102.72
2023-05-15T12:32:44.987Z,100098.03
2023-05-15T12:35:13.212Z,100093.44
2023-05-15T12:37:42.708Z,100084.69
2023-05-15T12:40:12.273Z,100096.28
2023-05-15T12:42:41.380Z,100099.59
2023-05-15T12:45:20.012Z,100094.47
2023-05-15T12:47:49.665Z,100095.94
2023-05-15T12:50:19.845Z,100091.28
2023-05-15T12:52:52.955Z,100098.13
2023-05-15T12:55:26.216Z,100089.66
2023-05-15T12:57:54.437Z,100087.69
2023-05-15T13:00:22.824Z,100083.47
2023-05-15T13:02:52.448Z,100071.25
2023-05-15T13:05:20.670Z,100068.66
2023-05-15T13:07:49.819Z,100071.50
2023-05-15T13:10:18.611Z,100062.25
2023-05-15T13:12:47.706Z,100048.13
2023-05-15T13:15:35.676Z,100050.84
2023-05-15T13:18:05.031Z,100065.91
2023-05-15T13:20:36.531Z,100064.19
2023-05-15T13:23:06.005Z,100061.19
2023-05-15T13:25:33.966Z,100063.84
2023-05-15T13:28:03.867Z,100072.00
2023-05-15T13:30:33.054Z,100099.78
2023-05-15T13:33:01.452Z,100098.47
2023-05-15T13:35:29.605Z,100113.34
2023-05-15T13:37:57.757Z,100120.41
2023-05-15T13:40:27.290Z,100123.72
2023-05-15T13:42:55.431Z,100127.22
2023-05-15T13:45:23.066Z,100128.59
2023-05-15T13:47:52.119Z,100121.03
2023-05-15T13:50:19.803Z,100112.88
2023-05-15T13:52:48.473Z,100114.88
2023-05-15T13:55:16.217Z,100125.38
2023-05-15T13:57:45.416Z,100113.94
2023-05-15T14:00:14.295Z,100116.16
2023-05-15T14:02:42.987Z,100124.34
2023-05-15T14:05:14.479Z,100125.25
2023-05-15T14:07:42.840Z,100118.97
2023-05-15T14:10:11.621Z,100127.16
2023-05-15T14:12:40.196Z,100134.03
2023-05-15T14:15:11.887Z,100145.63
2023-05-15T14:17:39.621Z,100150.84
2023-05-15T14:20:09.348Z,100145.31
2023-05-15T14:22:37.111Z,100142.94
2023-05-15T14:25:05.383Z,100135.16
2023-05-15T14:27:33.412Z,100117.94
2023-05-15T14:30:01.551Z,100104.66
2023-05-15T14:32:30.903Z,100106.41
2023-05-15T14:35:00.016Z,100103.69
2023-05-15T14:37:28.632Z,100101.06
2023-05-15T14:39:56.312Z,100101.41
2023-05-15T14:42:24.368Z,100090.84
2023-05-15T14:44:51.985Z,100084.69
2023-05-15T14:47:20.071Z,100084.00
2023-05-15T14:49:49.104Z,100081.25
2023-05-15T14:52:17.890Z,100076.25
2023-05-15T14:54:51.199Z,100070.53
2023-05-15T14:57:25.272Z,100071.34
2023-05-15T14:59:52.970Z,100056.06
2023-05-15T15:02:20.641Z,100063.22
2023-05-15T15:04:50.119Z,100061.13
2023-05-15T15:07:17.714Z,100065.19
2023-05-15T15:09:45.771Z,100068.28
2023-05-15T15:12:13.423Z,100067.78
2023-05-15T15:14:41.094Z,100072.50
2023-05-15T15:17:09.094Z,100068.59
2023-05-15T15:19:36.780Z,100073.00
2023-05-15T15:22:06.720Z,100072.81
2023-05-15T15:24:34.345Z,100062.91
2023-05-15T15:27:01.926Z,100066.81
2023-05-15T15:29:29.999Z,100055.59
2023-05-15T15:31:57.739Z,100049.09
2023-05-15T15:34:26.094Z,100042.09
2023-05-15T15:36:53.723Z,100043.72
2023-05-15T15:39:22.764Z,100056.56
2023-05-15T15:41:50.916Z,100045.69
2023-05-15T15:44:18.569Z,100043.41
2023-05-15T15:46:46.575Z,100042.09
2023-05-15T15:49:14.235Z,100044.06
2023-05-15T15:51:43.026Z,100037.88
2023-05-15T15:54:10.719Z,100035.59
2023-05-15T15:56:40.240Z,100031.72
2023-05-15T15:59:08.283Z,100028.16
2023-05-15T16:01:35.999Z,100018.06
2023-05-15T16:04:03.720Z,100013.22
2023-05-15T16:06:32.353Z,100020.84
2023-05-15T16:09:00.205Z,100012.56
2023-05-15T16:11:29.796Z,100018.41
2023-05-15T16:13:59.327Z,100015.78
2023-05-15T16:16:27.471Z,100012.56
2023-05-15T16:18:55.199Z,100007.03
2023-05-15T16:21:23.122Z,100017.91
2023-05-15T16:23:51.194Z,100014.34
2023-05-15T16:26:19.376Z,100013.53
2023-05-15T16:28:47.050Z,100016.75
2023-05-15T16:31:17.943Z,100025.56
2023-05-15T16:33:45.895Z,100023.28
2023-05-15T16:36:14.040Z,100014.66
2023-05-15T16:38:42.143Z,100027.00
2023-05-15T16:41:09.808Z,100033.97
2023-05-15T16:43:38.662Z,100031.69
2023-05-15T16:46:07.112Z,100038.19
2023-05-15T16:48:36.128Z,100055.88
2023-05-15T16:51:03.759Z,100054.75
2023-05-15T16:53:31.838Z,100076.00
2023-05-15T16:56:00.073Z,100084.47
2023-05-15T16:58:27.733Z,100086.13
2023-05-15T17:00:55.768Z,100085.31
2023-05-15T17:03:23.583Z,100078.81
2023-05-15T17:05:52.958Z,100070.19
2023-05-15T17:08:20.612Z,100082.06
2023-05-15T17:10:49.419Z,100081.91
2023-05-15T17:13:17.071Z,100082.72
2023-05-15T17:15:47.495Z,100080.75
2023-05-15T17:18:15.550Z,100076.06
2023-05-15T17:20:43.264Z,100073.63
2023-05-15T17:23:12.805Z,100069.88
2023-05-15T17:25:40.429Z,100065.81
2023-05-15T17:28:08.035Z,100059.31
2023-05-15T17:30:36.121Z,100058.53
2023-05-15T17:33:03.960Z,100059.66
2023-05-15T17:35:33.228Z,100058.84
2023-05-15T17:38:01.625Z,100062.56
2023-05-15T17:40:30.700Z,100067.63
2023-05-15T17:42:58.297Z,100067.97
2023-05-15T17:45:27.259Z,100083.38
2023-05-15T17:48:02.047Z,100074.44
2023-05-15T17:50:30.095Z,100076.56
2023-05-15T17:52:57.765Z,100077.34
2023-05-15T17:55:26.529Z,100070.19
2023-05-15T17:57:55.607Z,100076.25
2023-05-15T18:00:24.250Z,100084.34
2023-05-15T18:02:52.030Z,100093.44
2023-05-15T18:05:19.793Z,100084.84
2023-05-15T18:07:48.466Z,100080.28
2023-05-15T18:10:16.060Z,100076.88
2023-05-15T18:12:44.694Z,100079.81
2023-05-15T18:15:13.791Z,100081.91
2023-05-15T18:17:41.470Z,100095.91
2023-05-15T18:20:10.622Z,100092.66
2023-05-15T18:22:38.264Z,100083.56
2023-05-15T18:25:06.736Z,100087.28
2023-05-15T18:27:35.059Z,100090.50
2023-05-15T18:30:02.983Z,100101.38
2023-05-15T18:32:32.022Z,100102.84
2023-05-15T18:35:01.009Z,100111.63
2023-05-15T18:37:28.638Z,100110.00
2023-05-15T18:39:57.404Z,100118.94
2023-05-15T18:42:26.007Z,100113.91
2023-05-15T18:44:53.654Z,100127.25
2023-05-15T18:47:22.205Z,100122.38
2023-05-15T18:49:51.234Z,100127.44
2023-05-15T18:52:19.941Z,100122.38
2023-05-15T18:54:48.590Z,100117.19
2023-05-15T18:57:16.566Z,100108.09
2023-05-15T18:59:44.441Z,100111.16
2023-05-15T19:02:12.569Z,100106.16
2023-05-15T19:04:40.309Z,100110.66
2023-05-15T19:07:09.384Z,100107.91
2023-05-15T19:09:37.357Z,100104.53
2023-05-15T19:12:05.379Z,100107.28
2023-05-15T19:14:33.911Z,100112.81
2023-05-15T19:17:02.014Z,100119.97
2023-05-15T19:19:30.305Z,100123.34
2023-05-15T19:21:58.276Z,100118.47
2023-05-15T19:24:27.312Z,100129.84
2023-05-15T19:26:55.581Z,100132.78
2023-05-15T19:29:23.246Z,100136.84
2023-05-15T19:31:51.080Z,100136.03
2023-05-15T19:34:19.619Z,100142.69
2023-05-15T19:36:50.594Z,100150.00
2023-05-15T19:39:18.503Z,100148.22
2023-05-15T19:41:48.138Z,100150.66
2023-05-15T19:44:16.164Z,100156.81
2023-05-15T19:46:45.532Z,100142.53
2023-05-15T19:49:14.081Z,100164.50
2023-05-15T19:51:42.079Z,100156.84
2023-05-15T19:54:12.108Z,100162.03
2023-05-15T19:56:39.810Z,100164.31
2023-05-15T19:59:08.903Z,100156.69
2023-05-15T20:01:36.973Z,100163.34
2023-05-15T20:04:04.790Z,100168.56
2023-05-15T20:06:33.490Z,100169.84
2023-05-15T20:09:01.111Z,100172.09
2023-05-15T20:11:28.807Z,100173.91
2023-05-15T20:13:56.837Z,100174.22
2023-05-15T20:16:25.882Z,100168.53
2023-05-15T20:18:55.023Z,100174.19
2023-05-15T20:21:23.100Z,100174.38
2023-05-15T20:23:51.096Z,100175.84
2023-05-15T20:26:19.911Z,100181.38
2023-05-15T20:28:47.924Z,100178.56
2023-05-15T20:31:16.230Z,100175.31
2023-05-15T20:33:45.768Z,100170.91
2023-05-15T20:36:13.885Z,100173.03
2023-05-15T20:38:41.564Z,100170.56
2023-05-15T20:41:09.673Z,100169.28
2023-05-15T20:43:38.411Z,100169.91
2023-05-15T20:46:09.115Z,100175.13
2023-05-15T20:48:37.285Z,100176.06
2023-05-15T20:51:06.362Z,100176.25
2023-05-15T20:53:34.460Z,100180.47
2023-05-15T20:56:03.180Z,100182.09
2023-05-15T20:58:31.123Z,100177.41
2023-05-15T21:01:01.367Z,100175.28
2023-05-15T21:03:30.199Z,100169.78
2023-05-15T21:05:58.082Z,100173.03
2023-05-15T21:08:28.439Z,100174.28
2023-05-15T21:10:56.261Z,100174.63
2023-05-15T21:13:23.956Z,100171.53
2023-05-15T21:15:51.917Z,100167.00
2023-05-15T21:18:19.754Z,100168.28
2023-05-15T21:20:47.778Z,100173.31
2023-05-15T21:23:16.321Z,100182.09
2023-05-15T21:25:45.432Z,100182.69
2023-05-15T21:28:13.632Z,100188.25
2023-05-15T21:30:41.330Z,100182.09
2023-05-15T21:33:09.149Z,100194.09
2023-05-15T21:35:38.037Z,100198.75
2023-05-15T21:38:05.821Z,100184.66
2023-05-15T21:40:33.446Z,100185.44
2023-05-15T21:43:02.542Z,100185.44
2023-05-15T21:45:30.764Z,100181.25
2023-05-15T21:47:58.589Z,100181.25
2023-05-15T21:50:27.845Z,100183.03
2023-05-15T21:52:55.911Z,100187.72
2023-05-15T21:55:23.620Z,100190.19
2023-05-15T21:57:51.731Z,100189.34
2023-05-15T22:00:21.257Z,100185.78
2023-05-15T22:02:49.064Z,100192.94
2023-05-15T22:05:18.895Z,100194.88
2023-05-15T22:07:46.543Z,100204.47
2023-05-15T22:10:16.418Z,100199.75
2023-05-15T22:12:44.683Z,100204.28
2023-05-15T22:15:14.384Z,100196.19
2023-05-15T22:17:43.581Z,100204.28
2023-05-15T22:20:13.507Z,100195.06
2023-05-15T22:22:43.088Z,100197.81
2023-05-15T22:25:11.101Z,100199.25
2023-05-15T22:27:39.226Z,100199.41
2023-05-15T22:30:08.627Z,100202.31
2023-05-15T22:32:36.588Z,100203.25
2023-05-15T22:35:06.390Z,100210.41
2023-05-15T22:37:34.349Z,100209.97
2023-05-15T22:40:02.313Z,100209.66
2023-05-15T22:42:30.323Z,100209.78
2023-05-15T22:44:58.268Z,100206.72
2023-05-15T22:47:28.558Z,100208.97
2023-05-15T22:49:56.540Z,100206.72
2023-05-15T22:52:26.270Z,100207.19
2023-05-15T22:54:53.888Z,100215.66
2023-05-15T22:57:21.814Z,100215.16
2023-05-15T22:59:49.498Z,100213.41
2023-05-15T23:02:17.542Z,100214.69
2023-05-15T23:04:45.270Z,100221.34
2023-05-15T23:07:13.123Z,100224.44
2023-05-15T23:09:42.489Z,100226.38
2023-05-15T23:12:10.345Z,100230.63
2023-05-15T23:14:38.396Z,100228.38
2023-05-15T23:17:06.245Z,100232.56
2023-05-15T23:19:34.191Z,100218.63
2023-05-15T23:22:02.124Z,100224.47
2023-05-15T23:24:30.142Z,100221.53
2023-05-15T23:26:59.143Z,100232.25
2023-05-15T23:29:27.441Z,100216.50
2023-05-15T23:31:56.957Z,100234.38
2023-05-15T23:34:25.765Z,100239.56
2023-05-15T23:36:53.751Z,100233.25
2023-05-15T23:39:21.473Z,100231.16
2023-05-15T23:41:49.575Z,100234.88
2023-05-15T23:44:18.799Z,100234.03
2023-05-15T23:46:46.550Z,100239.06
2023-05-15T23:49:14.685Z,100241.03
2023-05-15T23:51:43.580Z,100239.72
2023-05-15T23:54:11.554Z,100233.88
2023-05-15T23:56:39.468Z,100239.06
2023-05-15T23:59:07.508Z,100239.41
